createdAt,value
2022-11-25T00:01:07.394Z,17.50
2022-11-25T00:03:35.151Z,10.55
2022-11-25T00:06:10.634Z,13.65
2022-11-25T00:08:37.489Z,8.65
2022-11-25T00:11:04.826Z,15.60
2022-11-25T00:13:31.426Z,12.18
2022-11-25T00:16:01.042Z,12.88
2022-11-25T00:18:27.322Z,12.55
2022-11-25T00:20:53.595Z,17.38
2022-11-25T00:23:19.977Z,13.23
2022-11-25T00:25:46.246Z,12.18
2022-11-25T00:28:12.533Z,13.10
2022-11-25T00:30:38.958Z,11.43
2022-11-25T00:33:05.323Z,9.88
2022-11-25T00:35:31.698Z,13.23
2022-11-25T00:37:57.965Z,9.60
2022-11-25T00:40:24.258Z,12.00
2022-11-25T00:43:09.004Z,10.07
2022-11-25T00:45:35.343Z,9.82
2022-11-25T00:48:01.764Z,10.65
2022-11-25T00:50:28.092Z,8.90
2022-11-25T00:52:54.402Z,9.45
2022-11-25T00:55:20.685Z,9.00
2022-11-25T00:57:47.006Z,8.20
2022-11-25T01:00:13.549Z,9.63
2022-11-25T01:02:39.908Z,9.40
2022-11-25T01:05:06.408Z,10.23
2022-11-25T01:07:32.852Z,6.88
2022-11-25T01:09:59.190Z,9.73
2022-11-25T01:12:25.473Z,11.00
2022-11-25T01:14:51.810Z,8.38
2022-11-25T01:17:18.151Z,10.98
2022-11-25T01:19:44.573Z,7.22
2022-11-25T01:22:10.930Z,7.47
2022-11-25T01:24:37.569Z,9.07
2022-11-25T01:27:04.046Z,7.30
2022-11-25T01:29:30.458Z,6.82
2022-11-25T01:31:57.614Z,8.52
2022-11-25T01:34:25.719Z,8.82
2022-11-25T01:36:52.069Z,9.02
2022-11-25T01:39:25.632Z,7.30
2022-11-25T01:41:56.650Z,6.75
2022-11-25T01:44:25.727Z,12.40
2022-11-25T01:46:56.865Z,7.88
2022-11-25T01:49:31.898Z,9.60
2022-11-25T01:52:11.348Z,8.98
2022-11-25T01:54:44.215Z,11.52
2022-11-25T01:57:23.152Z,6.40
2022-11-25T01:59:50.621Z,10.52
2022-11-25T02:02:17.843Z,9.52
2022-11-25T02:04:44.785Z,8.38
2022-11-25T02:07:16.090Z,11.60
2022-11-25T02:09:43.581Z,7.28
2022-11-25T02:12:10.332Z,8.65
2022-11-25T02:14:36.957Z,7.53
2022-11-25T02:17:03.420Z,7.00
2022-11-25T02:19:38.473Z,6.22
2022-11-25T02:22:06.684Z,12.70
2022-11-25T02:24:41.551Z,6.80
2022-11-25T02:27:08.009Z,7.27
2022-11-25T02:29:34.850Z,4.63
2022-11-25T02:32:01.278Z,10.77
2022-11-25T02:34:27.669Z,8.52
2022-11-25T02:36:54.156Z,7.30
2022-11-25T02:39:21.336Z,7.85
2022-11-25T02:41:53.546Z,8.68
2022-11-25T02:44:20.420Z,8.52
2022-11-25T02:46:46.776Z,8.38
2022-11-25T02:49:13.160Z,5.30
2022-11-25T02:51:40.612Z,7.13
2022-11-25T02:54:07.188Z,5.85
2022-11-25T02:56:34.489Z,5.20
2022-11-25T02:59:01.310Z,7.57
2022-11-25T03:01:28.093Z,6.57
2022-11-25T03:03:54.484Z,4.65
2022-11-25T03:06:20.834Z,3.88
2022-11-25T03:08:47.330Z,7.55
2022-11-25T03:11:13.942Z,4.35
2022-11-25T03:13:40.235Z,4.32
2022-11-25T03:16:06.861Z,7.07
2022-11-25T03:18:33.318Z,5.47
2022-11-25T03:20:59.624Z,8.90
2022-11-25T03:23:26.286Z,3.88
2022-11-25T03:25:52.611Z,6.57
2022-11-25T03:28:18.938Z,6.00
2022-11-25T03:30:45.438Z,5.30
2022-11-25T03:33:11.734Z,6.00
2022-11-25T03:35:38.118Z,5.13
2022-11-25T03:38:04.872Z,5.40
2022-11-25T03:40:31.173Z,4.10
2022-11-25T03:42:57.446Z,6.43
2022-11-25T03:45:23.757Z,3.75
2022-11-25T03:47:50.053Z,3.15
2022-11-25T03:50:16.686Z,4.18
2022-11-25T03:52:43.106Z,4.63
2022-11-25T03:55:09.812Z,5.50
2022-11-25T03:57:36.117Z,5.28
2022-11-25T04:00:02.767Z,4.82
2022-11-25T04:02:29.173Z,4.72
2022-11-25T04:04:55.565Z,6.13
2022-11-25T04:07:21.995Z,6.20
2022-11-25T04:09:48.322Z,4.35
2022-11-25T04:12:33.045Z,6.85
2022-11-25T04:14:59.329Z,6.35
2022-11-25T04:17:25.657Z,4.18
2022-11-25T04:19:52.050Z,8.05
2022-11-25T04:22:18.349Z,2.63
2022-11-25T04:24:44.706Z,4.88
2022-11-25T04:27:11.017Z,5.35
2022-11-25T04:29:37.323Z,3.80
2022-11-25T04:32:03.750Z,5.88
2022-11-25T04:34:30.053Z,4.78
2022-11-25T04:36:56.371Z,2.72
2022-11-25T04:39:22.675Z,1.88
2022-11-25T04:41:48.976Z,3.92
2022-11-25T04:44:15.261Z,4.18
2022-11-25T04:46:41.935Z,4.47
2022-11-25T04:49:08.342Z,4.53
2022-11-25T04:51:34.643Z,5.53
2022-11-25T04:54:01.107Z,7.97
2022-11-25T04:56:27.404Z,3.58
2022-11-25T04:59:29.186Z,5.68
2022-11-25T05:01:55.486Z,3.25
2022-11-25T05:04:21.818Z,3.47
2022-11-25T05:06:51.499Z,4.75
2022-11-25T05:09:18.142Z,4.90
2022-11-25T05:11:44.450Z,3.25
2022-11-25T05:14:10.775Z,4.57
2022-11-25T05:16:37.114Z,3.35
2022-11-25T05:19:03.489Z,3.90
2022-11-25T05:21:29.830Z,4.00
2022-11-25T05:23:56.335Z,5.13
2022-11-25T05:26:22.729Z,5.22
2022-11-25T05:28:49.036Z,6.43
2022-11-25T05:31:15.403Z,2.33
2022-11-25T05:33:41.780Z,3.38
2022-11-25T05:36:08.207Z,7.53
2022-11-25T05:38:34.513Z,7.72
2022-11-25T05:41:05.573Z,5.60
2022-11-25T05:43:33.806Z,3.05
2022-11-25T05:46:03.838Z,5.28
2022-11-25T05:48:30.193Z,6.13
2022-11-25T05:50:59.514Z,7.88
2022-11-25T05:53:25.794Z,4.03
2022-11-25T05:55:56.421Z,3.70
2022-11-25T05:58:23.339Z,4.32
2022-11-25T06:00:49.753Z,5.70
2022-11-25T06:03:16.232Z,3.28
2022-11-25T06:05:42.981Z,5.00
2022-11-25T06:08:09.766Z,4.97
2022-11-25T06:10:38.562Z,6.10
2022-11-25T06:13:04.858Z,4.60
2022-11-25T06:15:31.138Z,6.35
2022-11-25T06:17:57.484Z,7.35
2022-11-25T06:20:23.798Z,7.20
2022-11-25T06:22:50.513Z,3.92
2022-11-25T06:25:16.889Z,7.72
2022-11-25T06:28:11.432Z,6.75
2022-11-25T06:35:22.103Z,3.88
2022-11-25T06:37:49.579Z,5.20
2022-11-25T06:40:15.938Z,4.80
2022-11-25T06:42:43.492Z,5.43
2022-11-25T06:45:10.054Z,4.38
2022-11-25T06:47:36.386Z,4.43
2022-11-25T06:50:03.085Z,3.33
2022-11-25T06:52:32.580Z,7.68
2022-11-25T06:54:58.887Z,6.70
2022-11-25T06:57:25.210Z,4.10
2022-11-25T06:59:51.575Z,8.98
2022-11-25T07:02:17.942Z,8.48
2022-11-25T07:04:44.674Z,7.28
2022-11-25T07:07:11.055Z,7.57
2022-11-25T07:09:37.502Z,4.68
2022-11-25T07:12:05.722Z,6.47
2022-11-25T07:14:32.022Z,11.27
2022-11-25T07:16:58.323Z,3.90
2022-11-25T07:19:24.707Z,15.20
2022-11-25T07:21:51.069Z,6.10
2022-11-25T07:24:17.730Z,4.72
2022-11-25T07:26:44.312Z,3.90
2022-11-25T07:31:58.429Z,3.90
2022-11-25T07:34:24.714Z,4.22
2022-11-25T07:36:51.117Z,8.50
2022-11-25T07:39:21.681Z,4.43
2022-11-25T07:41:52.127Z,3.88
2022-11-25T07:44:18.661Z,1.65
2022-11-25T07:46:47.366Z,5.22
2022-11-25T07:49:15.754Z,7.25
2022-11-25T07:51:43.537Z,4.40
2022-11-25T07:54:11.778Z,3.45
2022-11-25T07:56:39.370Z,4.15
2022-11-25T07:59:06.630Z,4.53
2022-11-25T08:01:32.967Z,4.65
2022-11-25T08:03:59.349Z,4.72
2022-11-25T08:06:26.817Z,5.25
2022-11-25T08:08:55.419Z,3.90
2022-11-25T08:11:22.882Z,3.38
2022-11-25T08:13:49.547Z,4.80
2022-11-25T08:16:20.008Z,3.72
2022-11-25T08:18:46.588Z,3.90
2022-11-25T08:21:14.722Z,6.25
2022-11-25T08:23:42.924Z,4.85
2022-11-25T08:26:13.924Z,3.63
2022-11-25T08:28:41.373Z,6.55
2022-11-25T08:31:09.145Z,4.93
2022-11-25T08:33:35.479Z,3.42
2022-11-25T08:36:01.815Z,5.07
2022-11-25T08:38:28.773Z,6.28
2022-11-25T08:40:55.457Z,7.63
2022-11-25T08:43:26.357Z,8.43
2022-11-25T08:45:55.573Z,5.07
2022-11-25T08:48:21.931Z,6.78
2022-11-25T08:50:50.496Z,5.40
2022-11-25T08:53:17.370Z,4.45
2022-11-25T08:55:43.778Z,10.43
2022-11-25T08:58:11.303Z,3.25
2022-11-25T09:00:38.117Z,6.53
2022-11-25T09:03:04.665Z,3.92
2022-11-25T09:05:35.871Z,9.73
2022-11-25T09:08:03.558Z,7.18
2022-11-25T09:10:30.163Z,5.10
2022-11-25T09:12:56.835Z,9.93
2022-11-25T09:15:23.244Z,7.07
2022-11-25T09:17:49.700Z,6.53
2022-11-25T09:20:16.010Z,7.38
2022-11-25T09:22:42.375Z,6.18
2022-11-25T09:25:08.760Z,5.20
2022-11-25T09:27:35.072Z,4.38
2022-11-25T09:30:01.349Z,7.50
2022-11-25T09:32:27.632Z,6.78
2022-11-25T09:34:53.964Z,8.85
2022-11-25T09:37:20.238Z,6.60
2022-11-25T09:39:46.526Z,13.27
2022-11-25T09:42:43.546Z,7.60
2022-11-25T09:45:28.502Z,7.10
2022-11-25T09:48:07.201Z,8.23
2022-11-25T09:50:45.611Z,10.75
2022-11-25T09:53:25.630Z,9.45
2022-11-25T09:55:55.941Z,11.05
2022-11-25T09:58:34.941Z,6.63
2022-11-25T10:01:04.019Z,10.57
2022-11-25T10:03:37.649Z,10.13
2022-11-25T10:06:27.496Z,7.43
2022-11-25T10:08:56.189Z,9.35
2022-11-25T10:11:25.232Z,10.07
2022-11-25T10:13:57.886Z,7.32
2022-11-25T10:16:31.259Z,11.35
2022-11-25T10:19:17.859Z,10.13
2022-11-25T10:21:46.277Z,6.20
2022-11-25T10:24:14.582Z,9.63
2022-11-25T10:26:42.807Z,4.95
2022-11-25T10:29:29.199Z,10.32
2022-11-25T10:31:58.254Z,10.77
2022-11-25T10:34:42.098Z,14.80
2022-11-25T10:37:13.691Z,15.38
2022-11-25T10:39:40.364Z,16.55
2022-11-25T10:42:12.647Z,10.35
2022-11-25T10:44:40.623Z,13.43
2022-11-25T10:47:15.123Z,13.98
2022-11-25T10:49:50.325Z,9.38
2022-11-25T10:52:20.079Z,12.53
2022-11-25T10:54:55.548Z,11.70
2022-11-25T10:57:26.535Z,14.15
2022-11-25T10:59:57.885Z,13.43
2022-11-25T11:02:25.839Z,14.27
2022-11-25T11:05:11.071Z,11.57
2022-11-25T11:07:41.460Z,8.55
2022-11-25T11:10:13.669Z,15.23
2022-11-25T11:12:50.713Z,12.57
2022-11-25T11:15:23.154Z,19.25
2022-11-25T11:17:49.896Z,13.98
2022-11-25T11:20:21.331Z,11.38
2022-11-25T11:23:09.104Z,13.57
2022-11-25T11:25:37.339Z,17.05
2022-11-25T11:28:04.291Z,20.83
2022-11-25T11:30:31.842Z,11.82
2022-11-25T11:33:00.337Z,12.38
2022-11-25T11:35:49.438Z,17.63
2022-11-25T11:38:18.538Z,15.05
2022-11-25T11:40:47.056Z,16.08
2022-11-25T11:43:22.194Z,10.88
2022-11-25T11:46:01.282Z,12.55
2022-11-25T11:48:33.330Z,15.82
2022-11-25T11:51:11.933Z,17.73
2022-11-25T11:53:54.996Z,20.48
2022-11-25T11:56:36.543Z,11.20
2022-11-25T11:59:11.851Z,19.60
2022-11-25T12:01:47.363Z,11.27
2022-11-25T12:04:26.445Z,5.57
2022-11-25T12:07:00.034Z,13.55
2022-11-25T12:09:28.469Z,16.23
2022-11-25T12:11:59.014Z,14.77
2022-11-25T12:14:43.927Z,7.72
2022-11-25T12:17:30.512Z,14.43
2022-11-25T12:19:58.530Z,9.00
2022-11-25T12:22:27.789Z,8.80
2022-11-25T12:24:57.082Z,19.83
2022-11-25T12:27:26.470Z,13.75
2022-11-25T12:29:57.580Z,15.70
2022-11-25T12:32:44.084Z,13.38
2022-11-25T12:35:10.403Z,15.80
2022-11-25T12:37:39.762Z,11.27
2022-11-25T12:40:11.131Z,11.57
2022-11-25T12:42:39.604Z,20.20
2022-11-25T12:45:09.907Z,17.25
2022-11-25T12:47:36.289Z,17.40
2022-11-25T12:50:03.090Z,16.73
2022-11-25T12:52:48.526Z,13.40
2022-11-25T12:55:24.715Z,19.90
2022-11-25T12:58:11.622Z,8.80
2022-11-25T13:01:04.132Z,16.52
2022-11-25T13:04:03.134Z,12.10
2022-11-25T13:06:33.563Z,17.45
2022-11-25T13:09:18.914Z,12.50
2022-11-25T13:11:51.486Z,9.90
2022-11-25T13:14:37.903Z,8.77
2022-11-25T13:17:09.284Z,4.93
2022-11-25T13:19:37.248Z,10.30
2022-11-25T13:22:06.232Z,9.93
2022-11-25T13:24:33.709Z,6.57
2022-11-25T13:27:01.398Z,10.43
2022-11-25T13:29:28.206Z,8.00
2022-11-25T13:31:59.007Z,10.10
2022-11-25T13:34:32.866Z,19.45
2022-11-25T13:37:00.414Z,7.07
2022-11-25T13:39:37.370Z,7.85
2022-11-25T13:42:24.587Z,6.00
2022-11-25T13:44:54.885Z,14.88
2022-11-25T13:47:24.317Z,14.27
2022-11-25T13:49:52.637Z,16.25
2022-11-25T13:52:18.923Z,12.43
2022-11-25T13:54:49.474Z,14.40
2022-11-25T13:57:23.013Z,11.43
2022-11-25T13:59:50.917Z,16.33
2022-11-25T14:02:29.205Z,7.10
2022-11-25T14:04:55.580Z,11.23
2022-11-25T14:07:30.376Z,15.25
2022-11-25T14:09:56.860Z,10.93
2022-11-25T14:12:23.475Z,9.15
2022-11-25T14:15:02.179Z,11.35
2022-11-25T14:17:34.073Z,8.55
2022-11-25T14:20:19.154Z,10.43
2022-11-25T14:23:00.816Z,5.60
2022-11-25T14:25:30.135Z,10.07
2022-11-25T14:28:10.206Z,14.85
2022-11-25T14:30:46.629Z,9.77
2022-11-25T14:33:17.318Z,14.10
2022-11-25T14:35:46.238Z,13.00
2022-11-25T14:38:31.118Z,7.90
2022-11-25T14:41:03.858Z,13.38
2022-11-25T14:43:30.906Z,8.90
2022-11-25T14:46:17.941Z,11.93
2022-11-25T14:48:44.366Z,11.32
2022-11-25T14:51:11.678Z,11.82
2022-11-25T14:53:46.050Z,7.75
2022-11-25T14:56:15.144Z,8.10
2022-11-25T14:58:42.099Z,7.20
2022-11-25T15:01:17.289Z,9.05
2022-11-25T15:03:46.418Z,8.18
2022-11-25T15:06:13.840Z,4.90
2022-11-25T15:08:41.240Z,10.30
2022-11-25T15:11:14.024Z,14.02
2022-11-25T15:13:53.676Z,12.93
2022-11-25T15:16:22.237Z,14.98
2022-11-25T15:18:53.270Z,10.40
2022-11-25T15:21:21.813Z,15.95
2022-11-25T15:23:48.571Z,12.32
2022-11-25T15:26:20.173Z,19.95
2022-11-25T15:28:46.611Z,7.13
2022-11-25T15:31:18.657Z,17.65
2022-11-25T15:33:45.486Z,9.10
2022-11-25T15:36:11.808Z,8.25
2022-11-25T15:38:41.477Z,12.48
2022-11-25T15:41:15.553Z,10.10
2022-11-25T15:43:45.012Z,12.73
2022-11-25T15:46:11.456Z,11.50
2022-11-25T15:48:46.005Z,13.48
2022-11-25T15:51:21.576Z,9.77
2022-11-25T15:53:52.351Z,8.63
2022-11-25T15:56:21.313Z,17.17
2022-11-25T15:58:47.601Z,15.13
2022-11-25T16:01:17.288Z,8.13
2022-11-25T16:03:44.458Z,11.18
2022-11-25T16:06:24.275Z,10.90
2022-11-25T16:08:57.540Z,11.82
2022-11-25T16:11:25.509Z,13.63
2022-11-25T16:13:56.198Z,17.52
2022-11-25T16:16:24.471Z,15.15
2022-11-25T16:19:11.590Z,12.02
2022-11-25T16:21:40.601Z,16.75
2022-11-25T16:24:06.901Z,13.07
2022-11-25T16:26:35.013Z,9.93
2022-11-25T16:29:02.274Z,13.35
2022-11-25T16:31:29.000Z,15.50
2022-11-25T16:34:08.586Z,16.17
2022-11-25T16:36:34.929Z,13.80
2022-11-25T16:39:01.206Z,10.85
2022-11-25T16:41:27.715Z,16.88
2022-11-25T16:43:57.184Z,14.90
2022-11-25T16:46:26.491Z,7.63
2022-11-25T16:48:52.844Z,14.43
2022-11-25T16:51:20.345Z,18.20
2022-11-25T16:53:47.200Z,13.52
2022-11-25T16:56:20.568Z,11.95
2022-11-25T16:58:46.851Z,9.35
2022-11-25T17:01:17.316Z,13.88
2022-11-25T17:03:43.797Z,12.75
2022-11-25T17:06:17.120Z,12.70
2022-11-25T17:08:46.789Z,10.45
2022-11-25T17:11:15.475Z,10.95
2022-11-25T17:13:43.227Z,12.45
2022-11-25T17:16:13.761Z,12.88
2022-11-25T17:18:40.650Z,14.73
2022-11-25T17:21:07.049Z,13.25
2022-11-25T17:23:33.351Z,12.02
2022-11-25T17:25:59.924Z,10.15
2022-11-25T17:28:26.263Z,15.02
2022-11-25T17:30:52.568Z,10.73
2022-11-25T17:33:20.118Z,15.68
2022-11-25T17:35:46.696Z,8.52
2022-11-25T17:38:18.980Z,13.07
2022-11-25T17:40:45.846Z,11.90
2022-11-25T17:43:16.300Z,15.15
2022-11-25T17:45:43.379Z,14.90
2022-11-25T17:48:11.085Z,17.50
2022-11-25T17:50:37.627Z,11.57
2022-11-25T17:53:04.296Z,12.00
2022-11-25T17:55:31.255Z,15.90
2022-11-25T17:57:57.801Z,13.77
2022-11-25T18:00:24.889Z,14.32
2022-11-25T18:02:51.334Z,12.05
2022-11-25T18:05:22.287Z,18.67
2022-11-25T18:07:48.724Z,10.73
2022-11-25T18:10:19.568Z,13.98
2022-11-25T18:12:47.025Z,13.98
2022-11-25T18:15:21.311Z,10.63
2022-11-25T18:17:47.697Z,13.00
2022-11-25T18:20:15.283Z,18.58
2022-11-25T18:22:45.518Z,9.93
2022-11-25T18:25:15.904Z,16.63
2022-11-25T18:27:42.849Z,14.65
2022-11-25T18:30:20.316Z,8.23
2022-11-25T18:32:47.212Z,12.48
2022-11-25T18:35:18.607Z,18.20
2022-11-25T18:37:45.030Z,9.02
2022-11-25T18:40:11.936Z,12.88
2022-11-25T18:42:38.476Z,12.45
2022-11-25T18:45:05.119Z,12.70
2022-11-25T18:47:31.402Z,18.75
2022-11-25T18:49:57.768Z,21.20
2022-11-25T18:52:24.626Z,12.77
2022-11-25T18:54:51.141Z,13.88
2022-11-25T18:57:17.551Z,15.90
2022-11-25T18:59:44.446Z,16.33
2022-11-25T19:02:15.946Z,20.73
2022-11-25T19:04:42.392Z,15.93
2022-11-25T19:07:08.732Z,13.18
2022-11-25T19:09:35.072Z,24.98
2022-11-25T19:12:01.706Z,17.05
2022-11-25T19:14:36.226Z,20.55
2022-11-25T19:17:04.169Z,22.52
2022-11-25T19:19:30.748Z,19.83
2022-11-25T19:21:58.454Z,12.57
2022-11-25T19:24:24.898Z,18.85
2022-11-25T19:26:53.210Z,17.65
2022-11-25T19:29:21.751Z,10.52
2022-11-25T19:31:49.565Z,22.92
2022-11-25T19:34:23.748Z,19.77
2022-11-25T19:36:50.063Z,19.40
2022-11-25T19:39:17.068Z,20.80
2022-11-25T19:41:43.448Z,19.90
2022-11-25T19:44:09.740Z,21.75
2022-11-25T19:47:07.071Z,17.80
2022-11-25T19:49:24.711Z,19.77
2022-11-25T19:51:51.140Z,14.93
2022-11-25T19:54:18.387Z,18.30
2022-11-25T19:56:45.429Z,12.70
2022-11-25T19:59:11.762Z,16.02
2022-11-25T20:01:40.103Z,14.57
2022-11-25T20:04:07.582Z,16.80
2022-11-25T20:06:33.979Z,12.57
2022-11-25T20:09:06.415Z,13.45
2022-11-25T20:11:36.477Z,14.18
2022-11-25T20:14:03.559Z,10.35
2022-11-25T20:16:33.269Z,13.77
2022-11-25T20:19:00.084Z,12.82
2022-11-25T20:21:37.865Z,13.40
2022-11-25T20:24:05.364Z,14.98
2022-11-25T20:26:34.142Z,15.98
2022-11-25T20:29:00.547Z,11.95
2022-11-25T20:31:30.726Z,13.13
2022-11-25T20:33:57.291Z,17.00
2022-11-25T20:36:28.930Z,15.35
2022-11-25T20:38:56.035Z,14.50
2022-11-25T20:41:27.508Z,15.55
2022-11-25T20:43:54.981Z,15.05
2022-11-25T20:46:26.963Z,15.90
2022-11-25T20:48:55.071Z,13.63
2022-11-25T20:51:22.684Z,14.63
2022-11-25T20:53:53.242Z,14.52
2022-11-25T20:56:24.051Z,16.08
2022-11-25T20:58:50.374Z,15.55
2022-11-25T21:01:18.895Z,13.20
2022-11-25T21:03:45.921Z,18.80
2022-11-25T21:06:19.967Z,15.10
2022-11-25T21:08:47.935Z,16.00
2022-11-25T21:11:14.620Z,16.13
2022-11-25T21:13:40.956Z,10.35
2022-11-25T21:16:07.374Z,12.60
2022-11-25T21:18:34.302Z,15.20
2022-11-25T21:21:00.693Z,16.38
2022-11-25T21:23:37.353Z,9.63
2022-11-25T21:26:20.266Z,16.55
2022-11-25T21:28:47.704Z,15.13
2022-11-25T21:31:19.289Z,13.30
2022-11-25T21:33:46.144Z,15.45
2022-11-25T21:36:17.613Z,13.45
2022-11-25T21:38:44.194Z,12.60
2022-11-25T21:41:10.803Z,11.98
2022-11-25T21:43:39.721Z,17.23
2022-11-25T21:46:09.735Z,11.15
2022-11-25T21:48:36.451Z,22.33
2022-11-25T21:51:03.026Z,13.65
2022-11-25T21:53:32.029Z,15.60
2022-11-25T21:56:01.598Z,14.40
2022-11-25T21:58:29.148Z,18.00
2022-11-25T22:00:57.478Z,14.35
2022-11-25T22:03:24.744Z,16.75
2022-11-25T22:05:51.220Z,13.45
2022-11-25T22:08:17.735Z,14.85
2022-11-25T22:10:45.910Z,11.93
2022-11-25T22:13:15.735Z,11.18
2022-11-25T22:15:42.056Z,9.65
2022-11-25T22:18:13.916Z,15.00
2022-11-25T22:20:41.076Z,11.70
2022-11-25T22:23:17.539Z,15.02
2022-11-25T22:25:44.127Z,13.30
2022-11-25T22:28:14.296Z,13.02
2022-11-25T22:30:41.977Z,12.68
2022-11-25T22:33:10.433Z,16.08
2022-11-25T22:35:36.715Z,11.75
2022-11-25T22:38:03.179Z,12.50
2022-11-25T22:40:29.499Z,18.55
2022-11-25T22:42:56.327Z,16.38
2022-11-25T22:45:33.072Z,15.85
2022-11-25T22:48:00.349Z,13.65
2022-11-25T22:50:28.170Z,16.00
2022-11-25T22:52:55.427Z,14.23
2022-11-25T22:55:21.802Z,11.80
2022-11-25T22:57:49.308Z,15.13
2022-11-25T23:00:17.989Z,10.05
2022-11-25T23:02:44.331Z,13.20
2022-11-25T23:05:21.214Z,12.18
2022-11-25T23:07:47.652Z,11.52
2022-11-25T23:10:15.376Z,12.23
2022-11-25T23:12:41.696Z,14.43
2022-11-25T23:15:12.040Z,12.85
2022-11-25T23:17:38.738Z,10.02
2022-11-25T23:20:14.070Z,12.13
2022-11-25T23:22:40.349Z,14.43
2022-11-25T23:25:12.217Z,12.57
2022-11-25T23:27:38.518Z,9.90
2022-11-25T23:30:05.594Z,16.65
2022-11-25T23:32:32.420Z,14.10
2022-11-25T23:34:58.926Z,14.43
2022-11-25T23:37:25.643Z,10.70
2022-11-25T23:39:53.159Z,21.52
2022-11-25T23:42:20.219Z,15.15
2022-11-25T23:44:46.541Z,15.27
2022-11-25T23:47:14.903Z,11.15
2022-11-25T23:49:44.411Z,11.68
2022-11-25T23:52:13.794Z,18.73
2022-11-25T23:54:42.571Z,7.95
2022-11-25T23:57:17.938Z,8.18
2022-11-25T23:59:44.565Z,8.65
